Upper Montclair, New Jersey
Current Conditions -  °F | °C
As of 3:53 AM on Wednesday 28 Jan 2015 (Local Time) from KCDW Reporting Station
Clear Clear  
Wind Chill:   Ceiling: Unl
Heat Index: 14°   Visibility: 10mi
Dew Point: -5°   Wind: 5mph
Humidity: 43%   Direction: NA
Pressure: 29.94"   Gusts: NA
Location:  40.8433°N, 74.2009°W
Report Text: KCDW 280853Z VRB04KT 10SM CLR M10/M21 A2994 RMK AO2 SLP145 T11001206 51019
Loading
Personal Weather Stations






























Interactive Weather Map New forecast layout! Learn more

10-Day Weather Forecast

Advertisements
Track Severe Weather on mobile